createdAt,value
2019-02-06T00:00:28.667Z,313.54
2019-02-06T00:01:28.714Z,313.79
2019-02-06T00:02:28.624Z,313.66
2019-02-06T00:03:28.618Z,313.21
2019-02-06T00:04:28.641Z,313.42
2019-02-06T00:05:28.602Z,313.33
2019-02-06T00:06:28.626Z,314.10
2019-02-06T00:07:28.579Z,313.84
2019-02-06T00:08:28.574Z,314.04
2019-02-06T00:09:28.545Z,313.41
2019-02-06T00:10:28.545Z,313.97
2019-02-06T00:11:28.530Z,313.48
2019-02-06T00:12:28.549Z,313.17
2019-02-06T00:13:28.522Z,313.67
2019-02-06T00:14:28.523Z,313.57
2019-02-06T00:15:28.498Z,313.73
2019-02-06T00:16:28.508Z,313.26
2019-02-06T00:17:28.470Z,313.35
2019-02-06T00:18:28.476Z,312.98
2019-02-06T00:19:28.444Z,313.01
2019-02-06T00:20:28.435Z,313.15
2019-02-06T00:21:28.443Z,313.56
2019-02-06T00:22:28.402Z,313.22
2019-02-06T00:23:28.390Z,313.61
2019-02-06T00:24:28.414Z,313.48
2019-02-06T00:25:28.385Z,313.34
2019-02-06T00:26:28.378Z,313.11
2019-02-06T00:27:28.396Z,313.09
2019-02-06T00:28:28.376Z,313.43
2019-02-06T00:29:28.331Z,313.61
2019-02-06T00:30:28.332Z,313.42
2019-02-06T00:31:28.316Z,313.96
2019-02-06T00:32:28.303Z,313.57
2019-02-06T00:33:28.309Z,313.28
2019-02-06T00:34:28.276Z,313.54
2019-02-06T00:35:28.284Z,313.26
2019-02-06T00:36:28.263Z,312.75
2019-02-06T00:37:28.253Z,313.02
2019-02-06T00:38:28.239Z,313.07
2019-02-06T00:39:28.260Z,313.22
2019-02-06T00:40:28.211Z,312.87
2019-02-06T00:41:28.197Z,312.95
2019-02-06T00:42:28.179Z,313.32
2019-02-06T00:43:28.173Z,313.05
2019-02-06T00:44:28.175Z,312.78
2019-02-06T00:45:28.192Z,313.12
2019-02-06T00:46:28.142Z,313.14
2019-02-06T00:47:28.132Z,313.20
2019-02-06T00:48:28.128Z,313.11
2019-02-06T00:49:28.118Z,313.20
2019-02-06T00:50:28.117Z,313.14
2019-02-06T00:51:28.242Z,313.39
2019-02-06T00:52:28.079Z,313.13
2019-02-06T00:53:28.073Z,312.74
2019-02-06T00:54:28.058Z,312.80
2019-02-06T00:55:28.048Z,312.88
2019-02-06T00:56:28.053Z,313.25
2019-02-06T00:57:28.387Z,312.82
2019-02-06T00:58:28.028Z,312.72
2019-02-06T00:59:28.011Z,313.12
2019-02-06T01:00:28.480Z,312.81
2019-02-06T01:01:27.974Z,312.47
2019-02-06T01:02:27.994Z,312.66
2019-02-06T01:03:28.004Z,312.64
2019-02-06T01:04:27.945Z,312.73
2019-02-06T01:05:37.955Z,312.65
2019-02-06T01:06:28.923Z,312.56
2019-02-06T01:07:27.916Z,312.45
2019-02-06T01:08:27.909Z,312.83
2019-02-06T01:09:27.915Z,312.64
2019-02-06T01:10:27.890Z,312.72
2019-02-06T01:11:27.877Z,312.12
2019-02-06T01:12:27.867Z,312.58
2019-02-06T01:13:27.881Z,313.10
2019-02-06T01:14:27.837Z,312.99
2019-02-06T01:15:27.825Z,312.97
2019-02-06T01:16:27.824Z,313.69
2019-02-06T01:17:27.834Z,313.07
2019-02-06T01:18:27.816Z,313.41
2019-02-06T01:19:27.860Z,312.77
2019-02-06T01:20:27.824Z,313.31
2019-02-06T01:21:27.818Z,312.79
2019-02-06T01:22:27.771Z,313.12
2019-02-06T01:23:27.767Z,312.96
2019-02-06T01:24:27.775Z,313.65
2019-02-06T01:25:28.070Z,313.00
2019-02-06T01:26:27.728Z,312.91
2019-02-06T01:27:28.040Z,313.00
2019-02-06T01:28:27.828Z,312.54
2019-02-06T01:29:27.733Z,312.77
2019-02-06T01:30:27.696Z,312.90
2019-02-06T01:31:27.682Z,313.49
2019-02-06T01:32:27.948Z,314.51
2019-02-06T01:33:27.713Z,313.44
2019-02-06T01:34:27.625Z,312.92
2019-02-06T01:35:27.620Z,313.30
2019-02-06T01:36:27.599Z,312.95
2019-02-06T01:37:27.608Z,312.86
2019-02-06T01:38:27.584Z,312.63
2019-02-06T01:39:27.570Z,312.63
2019-02-06T01:40:27.631Z,313.09
2019-02-06T01:41:27.571Z,312.83
2019-02-06T01:42:27.561Z,312.81
2019-02-06T01:43:27.645Z,312.88
2019-02-06T01:44:27.512Z,313.24
2019-02-06T01:45:27.501Z,312.48
2019-02-06T01:46:27.490Z,312.82
2019-02-06T01:47:27.560Z,312.87
2019-02-06T01:48:27.488Z,312.90
2019-02-06T01:49:27.471Z,313.00
2019-02-06T01:50:27.447Z,313.06
2019-02-06T01:51:27.482Z,313.12
2019-02-06T01:52:27.437Z,313.18
2019-02-06T01:53:27.447Z,313.06
2019-02-06T01:54:27.410Z,313.24
2019-02-06T01:55:27.396Z,313.39
2019-02-06T01:56:27.380Z,313.46
2019-02-06T01:57:27.389Z,313.40
2019-02-06T01:58:27.638Z,313.10
2019-02-06T01:59:27.347Z,313.41
2019-02-06T02:00:27.341Z,313.70
2019-02-06T02:01:27.331Z,312.76
2019-02-06T02:02:27.323Z,313.37
2019-02-06T02:03:27.575Z,313.09
2019-02-06T02:04:27.291Z,313.08
2019-02-06T02:05:27.279Z,312.83
2019-02-06T02:06:27.317Z,312.74
2019-02-06T02:07:27.292Z,312.65
2019-02-06T02:08:27.258Z,313.03
2019-02-06T02:09:27.266Z,313.00
2019-02-06T02:10:27.246Z,312.88
2019-02-06T02:11:27.218Z,312.45
2019-02-06T02:12:27.212Z,312.88
2019-02-06T02:13:27.221Z,312.79
2019-02-06T02:14:27.213Z,312.38
2019-02-06T02:15:27.571Z,312.93
2019-02-06T02:16:27.331Z,313.01
2019-02-06T02:17:27.203Z,312.37
2019-02-06T02:18:27.190Z,312.99
2019-02-06T02:19:27.143Z,312.59
2019-02-06T02:20:27.493Z,312.85
2019-02-06T02:21:27.172Z,312.60
2019-02-06T02:22:27.229Z,312.82
2019-02-06T02:23:27.121Z,312.76
2019-02-06T02:24:27.072Z,312.81
2019-02-06T02:25:27.179Z,312.82
2019-02-06T02:26:27.053Z,312.49
2019-02-06T02:27:27.092Z,312.71
2019-02-06T02:28:27.048Z,312.79
2019-02-06T02:29:27.022Z,312.78
2019-02-06T02:30:27.013Z,313.03
2019-02-06T02:31:27.026Z,312.68
2019-02-06T02:32:27.058Z,313.20
2019-02-06T02:33:26.978Z,312.79
2019-02-06T02:34:26.974Z,313.24
2019-02-06T02:35:26.975Z,313.31
2019-02-06T02:36:26.975Z,313.25
2019-02-06T02:37:26.955Z,313.76
2019-02-06T02:38:26.922Z,313.28
2019-02-06T02:39:26.910Z,313.16
2019-02-06T02:40:27.030Z,313.13
2019-02-06T02:41:26.947Z,313.04
2019-02-06T02:42:26.899Z,313.17
2019-02-06T02:43:27.102Z,313.10
2019-02-06T02:44:26.925Z,313.09
2019-02-06T02:45:26.927Z,313.21
2019-02-06T02:46:26.834Z,313.74
2019-02-06T02:47:26.825Z,313.25
2019-02-06T02:48:26.838Z,313.45
2019-02-06T02:49:26.851Z,313.46
2019-02-06T02:50:26.820Z,313.53
2019-02-06T02:51:27.005Z,313.07
2019-02-06T02:52:26.771Z,313.27
2019-02-06T02:53:26.756Z,312.60
2019-02-06T02:54:26.777Z,312.84
2019-02-06T02:55:26.743Z,313.11
2019-02-06T02:56:26.724Z,312.87
2019-02-06T02:57:26.729Z,312.92
2019-02-06T02:58:26.718Z,312.71
2019-02-06T02:59:26.687Z,312.37
2019-02-06T03:00:26.692Z,313.07
2019-02-06T03:01:26.675Z,313.21
2019-02-06T03:02:26.665Z,312.62
2019-02-06T03:03:26.673Z,312.65
2019-02-06T03:04:26.638Z,313.35
2019-02-06T03:05:26.734Z,313.33
2019-02-06T03:06:28.493Z,313.29
2019-02-06T03:07:26.607Z,313.44
2019-02-06T03:08:26.621Z,313.30
2019-02-06T03:09:26.631Z,313.22
2019-02-06T03:10:26.573Z,313.24
2019-02-06T03:11:26.656Z,312.69
2019-02-06T03:12:26.592Z,312.87
2019-02-06T03:13:26.572Z,313.25
2019-02-06T03:14:26.531Z,313.19
2019-02-06T03:15:26.552Z,312.81
2019-02-06T03:16:26.511Z,313.21
2019-02-06T03:17:26.492Z,313.14
2019-02-06T03:18:26.480Z,312.96
2019-02-06T03:19:26.489Z,313.28
2019-02-06T03:20:26.469Z,312.93
2019-02-06T03:21:26.468Z,312.98
2019-02-06T03:22:26.445Z,312.44
2019-02-06T03:23:26.477Z,313.08
2019-02-06T03:24:26.417Z,312.54
2019-02-06T03:25:26.407Z,312.60
2019-02-06T03:26:26.405Z,312.87
2019-02-06T03:27:26.404Z,313.20
2019-02-06T03:28:26.377Z,312.76
2019-02-06T03:29:26.384Z,312.98
2019-02-06T03:30:26.475Z,312.88
2019-02-06T03:31:26.390Z,312.92
2019-02-06T03:32:26.348Z,312.96
2019-02-06T03:33:26.329Z,313.19
2019-02-06T03:34:26.386Z,313.02
2019-02-06T03:35:26.312Z,312.74
2019-02-06T03:36:26.404Z,313.39
2019-02-06T03:37:26.280Z,313.29
2019-02-06T03:38:26.283Z,312.96
2019-02-06T03:39:26.335Z,313.32
2019-02-06T03:40:26.345Z,313.23
2019-02-06T03:41:26.311Z,313.48
2019-02-06T03:42:26.231Z,313.39
2019-02-06T03:43:26.258Z,313.13
2019-02-06T03:44:26.206Z,313.13
2019-02-06T03:45:26.285Z,313.71
2019-02-06T03:46:26.186Z,313.19
2019-02-06T03:47:26.203Z,313.23
2019-02-06T03:48:26.197Z,313.12
2019-02-06T03:49:26.153Z,313.21
2019-02-06T03:50:26.145Z,313.53
2019-02-06T03:51:26.184Z,313.55
2019-02-06T03:52:26.131Z,313.74
2019-02-06T03:53:26.131Z,313.02
2019-02-06T03:54:26.102Z,313.38
2019-02-06T03:55:26.081Z,313.59
2019-02-06T03:56:26.074Z,313.32
2019-02-06T03:57:26.054Z,313.13
2019-02-06T03:58:26.211Z,313.55
2019-02-06T03:59:26.078Z,313.32
2019-02-06T04:00:26.091Z,313.57
2019-02-06T04:01:26.184Z,313.77
2019-02-06T04:02:26.010Z,313.55
2019-02-06T04:03:26.117Z,314.31
2019-02-06T04:04:25.998Z,314.18
2019-02-06T04:05:26.018Z,314.44
2019-02-06T04:06:26.077Z,314.02
2019-02-06T04:07:25.950Z,314.39
2019-02-06T04:08:25.945Z,314.31
2019-02-06T04:09:25.929Z,314.30
2019-02-06T04:10:25.944Z,314.24
2019-02-06T04:11:25.909Z,314.50
2019-02-06T04:12:25.951Z,314.26
2019-02-06T04:13:25.897Z,313.69
2019-02-06T04:14:25.994Z,314.15
2019-02-06T04:15:25.899Z,313.79
2019-02-06T04:16:26.021Z,313.94
2019-02-06T04:17:25.937Z,313.89
2019-02-06T04:18:25.872Z,313.98
2019-02-06T04:19:25.856Z,314.42
2019-02-06T04:20:25.805Z,314.28
2019-02-06T04:21:25.790Z,314.16
2019-02-06T04:22:25.791Z,314.46
2019-02-06T04:23:25.820Z,314.05
2019-02-06T04:24:25.805Z,314.28
2019-02-06T04:25:25.757Z,314.41
2019-02-06T04:26:25.771Z,314.54
2019-02-06T04:27:25.766Z,314.05
2019-02-06T04:28:25.726Z,314.55
2019-02-06T04:29:25.709Z,314.91
2019-02-06T04:30:25.710Z,314.56
2019-02-06T04:31:25.690Z,315.20
2019-02-06T04:32:25.692Z,313.96
2019-02-06T04:33:25.682Z,314.51
2019-02-06T04:34:25.699Z,314.92
2019-02-06T04:35:25.639Z,314.51
2019-02-06T04:36:25.635Z,314.71
2019-02-06T04:37:25.621Z,314.65
2019-02-06T04:38:25.637Z,314.35
2019-02-06T04:39:25.616Z,314.41
2019-02-06T04:40:25.586Z,314.14
2019-02-06T04:41:25.571Z,314.20
2019-02-06T04:42:25.564Z,314.21
2019-02-06T04:43:25.588Z,313.98
2019-02-06T04:44:25.567Z,314.52
2019-02-06T04:45:25.541Z,314.11
2019-02-06T04:46:25.524Z,314.05
2019-02-06T04:47:25.507Z,314.21
2019-02-06T04:48:25.524Z,314.56
2019-02-06T04:49:25.527Z,314.83
2019-02-06T04:50:25.587Z,314.85
2019-02-06T04:51:25.479Z,314.85
2019-02-06T04:52:25.455Z,315.08
2019-02-06T04:53:25.462Z,314.97
2019-02-06T04:54:25.464Z,315.46
2019-02-06T04:55:25.428Z,315.59
2019-02-06T04:56:25.418Z,315.60
2019-02-06T04:57:25.413Z,315.74
2019-02-06T04:58:25.399Z,315.91
2019-02-06T04:59:25.429Z,315.62
2019-02-06T05:00:25.382Z,315.39
2019-02-06T05:01:25.364Z,315.47
2019-02-06T05:02:25.351Z,315.97
2019-02-06T05:03:25.940Z,315.51
2019-02-06T05:04:25.352Z,315.52
2019-02-06T05:05:25.344Z,315.73
2019-02-06T05:06:25.302Z,315.50
2019-02-06T05:07:25.305Z,315.45
2019-02-06T05:08:25.291Z,315.33
2019-02-06T05:09:25.282Z,315.03
2019-02-06T05:10:25.288Z,315.49
2019-02-06T05:11:25.311Z,315.97
2019-02-06T05:12:25.238Z,315.84
2019-02-06T05:13:25.233Z,316.07
2019-02-06T05:14:25.236Z,316.87
2019-02-06T05:15:25.217Z,316.72
2019-02-06T05:16:25.204Z,316.21
2019-02-06T05:17:25.213Z,316.39
2019-02-06T05:18:25.175Z,316.39
2019-02-06T05:19:25.161Z,316.75
2019-02-06T05:20:25.163Z,316.61
2019-02-06T05:21:25.149Z,316.82
2019-02-06T05:22:25.176Z,316.01
2019-02-06T05:23:25.128Z,316.29
2019-02-06T05:24:25.112Z,316.22
2019-02-06T05:25:25.103Z,316.15
2019-02-06T05:26:25.088Z,316.21
2019-02-06T05:27:25.075Z,316.56
2019-02-06T05:28:25.090Z,316.45
2019-02-06T05:29:25.058Z,316.61
2019-02-06T05:30:25.088Z,315.83
2019-02-06T05:31:25.037Z,316.24
2019-02-06T05:32:25.019Z,316.62
2019-02-06T05:33:25.394Z,316.85
2019-02-06T05:34:25.016Z,316.79
2019-02-06T05:35:24.990Z,317.17
2019-02-06T05:36:24.975Z,316.70
2019-02-06T05:37:32.034Z,316.73
2019-02-06T05:38:25.954Z,316.85
2019-02-06T05:39:24.970Z,317.32
2019-02-06T05:40:24.960Z,317.50
2019-02-06T05:41:24.937Z,317.69
2019-02-06T05:42:24.950Z,317.27
2019-02-06T05:43:24.933Z,318.70
2019-02-06T05:44:24.919Z,318.57
2019-02-06T05:45:24.887Z,321.18
2019-02-06T05:46:24.873Z,318.07
2019-02-06T05:47:24.866Z,317.98
2019-02-06T05:48:24.864Z,317.54
2019-02-06T05:49:24.878Z,317.37
2019-02-06T05:50:24.831Z,317.75
2019-02-06T05:51:24.814Z,317.74
2019-02-06T05:52:24.819Z,317.22
2019-02-06T05:53:24.822Z,317.28
2019-02-06T05:54:24.802Z,317.18
2019-02-06T05:55:24.809Z,317.36
2019-02-06T05:56:24.766Z,317.02
2019-02-06T05:57:24.762Z,317.20
2019-02-06T05:58:24.740Z,316.91
2019-02-06T05:59:24.738Z,317.03
2019-02-06T06:00:24.774Z,317.08
2019-02-06T06:01:24.715Z,316.80
2019-02-06T06:02:24.707Z,316.86
2019-02-06T06:03:24.695Z,317.26
2019-02-06T06:04:24.707Z,316.53
2019-02-06T06:05:24.706Z,317.28
2019-02-06T06:06:24.703Z,316.48
2019-02-06T06:07:24.652Z,317.45
2019-02-06T06:08:24.633Z,317.21
2019-02-06T06:09:24.626Z,316.95
2019-02-06T06:10:24.631Z,317.12
2019-02-06T06:11:24.674Z,317.42
2019-02-06T06:12:24.607Z,317.43
2019-02-06T06:13:24.595Z,317.53
2019-02-06T06:14:24.578Z,316.90
2019-02-06T06:15:24.578Z,317.10
2019-02-06T06:16:24.579Z,317.32
2019-02-06T06:17:24.543Z,317.21
2019-02-06T06:18:24.531Z,317.34
2019-02-06T06:19:24.533Z,317.36
2019-02-06T06:20:24.511Z,316.86
2019-02-06T06:21:24.511Z,317.52
2019-02-06T06:22:24.498Z,317.30
2019-02-06T06:23:24.483Z,317.17
2019-02-06T06:24:24.495Z,317.16
2019-02-06T06:25:24.490Z,316.98
2019-02-06T06:26:24.448Z,316.97
2019-02-06T06:27:24.464Z,317.04
2019-02-06T06:28:24.422Z,317.21
2019-02-06T06:29:24.405Z,317.12
2019-02-06T06:30:24.399Z,316.27
2019-02-06T06:31:24.389Z,316.79
2019-02-06T06:32:24.425Z,316.45
2019-02-06T06:33:24.377Z,316.74
2019-02-06T06:34:24.406Z,316.98
2019-02-06T06:35:24.346Z,316.53
2019-02-06T06:36:24.334Z,316.87
2019-02-06T06:37:24.325Z,316.77
2019-02-06T06:38:24.335Z,316.52
2019-02-06T06:39:24.317Z,316.81
2019-02-06T06:40:24.292Z,316.86
2019-02-06T06:41:24.279Z,316.98
2019-02-06T06:42:24.405Z,316.68
2019-02-06T06:43:24.287Z,316.93
2019-02-06T06:44:24.251Z,316.70
2019-02-06T06:45:24.243Z,316.80
2019-02-06T06:46:24.239Z,317.05
2019-02-06T06:47:24.228Z,317.45
2019-02-06T06:48:24.235Z,317.17
2019-02-06T06:49:24.227Z,316.91
2019-02-06T06:50:24.187Z,316.80
2019-02-06T06:51:24.172Z,316.43
2019-02-06T06:52:24.174Z,316.81
2019-02-06T06:53:24.163Z,316.78
2019-02-06T06:54:24.157Z,316.83
2019-02-06T06:55:24.125Z,316.52
2019-02-06T06:56:24.126Z,316.54
2019-02-06T06:57:24.113Z,316.54
2019-02-06T06:58:24.118Z,316.51
2019-02-06T06:59:24.134Z,316.70
2019-02-06T07:00:24.081Z,316.69
2019-02-06T07:01:24.109Z,316.35
2019-02-06T07:02:24.072Z,316.75
2019-02-06T07:03:24.057Z,316.65
2019-02-06T07:04:24.074Z,316.58
2019-02-06T07:05:24.050Z,316.72
2019-02-06T07:06:24.013Z,317.06
2019-02-06T07:07:24.011Z,316.70
2019-02-06T07:08:23.981Z,316.53
2019-02-06T07:09:23.996Z,317.04
2019-02-06T07:10:23.972Z,317.02
2019-02-06T07:11:23.973Z,316.90
2019-02-06T07:12:23.942Z,317.24
2019-02-06T07:13:23.928Z,317.07
2019-02-06T07:14:23.952Z,317.28
2019-02-06T07:15:23.933Z,316.86
2019-02-06T07:16:23.918Z,317.10
2019-02-06T07:17:23.899Z,317.02
2019-02-06T07:18:23.892Z,317.16
2019-02-06T07:19:23.877Z,316.25
2019-02-06T07:20:23.877Z,317.04
2019-02-06T07:21:23.847Z,316.90
2019-02-06T07:22:23.868Z,317.00
2019-02-06T07:23:23.839Z,316.62
2019-02-06T07:24:23.836Z,316.78
2019-02-06T07:25:23.815Z,316.49
2019-02-06T07:26:23.799Z,316.33
2019-02-06T07:27:23.810Z,316.73
2019-02-06T07:28:23.782Z,316.17
2019-02-06T07:29:23.763Z,316.52
2019-02-06T07:30:23.807Z,316.69
2019-02-06T07:31:23.757Z,316.49
2019-02-06T07:32:23.775Z,316.26
2019-02-06T07:33:23.728Z,316.49
2019-02-06T07:34:23.704Z,315.57
2019-02-06T07:35:23.698Z,315.02
2019-02-06T07:36:23.726Z,314.71
2019-02-06T07:37:23.684Z,314.74
2019-02-06T07:38:24.622Z,314.79
2019-02-06T07:39:23.663Z,314.62
2019-02-06T07:40:23.661Z,314.51
2019-02-06T07:41:23.662Z,314.67
2019-02-06T07:42:23.636Z,314.54
2019-02-06T07:43:23.635Z,315.09
2019-02-06T07:44:23.599Z,314.69
2019-02-06T07:45:23.587Z,314.81
2019-02-06T07:46:23.579Z,314.86
2019-02-06T07:47:23.583Z,314.48
2019-02-06T07:48:23.611Z,314.61
2019-02-06T07:49:23.556Z,314.54
2019-02-06T07:50:23.556Z,314.26
2019-02-06T07:51:23.538Z,314.77
2019-02-06T07:52:23.539Z,314.48
2019-02-06T07:53:23.503Z,314.19
2019-02-06T07:54:23.487Z,314.39
2019-02-06T07:55:23.480Z,315.25
2019-02-06T07:56:23.473Z,315.54
2019-02-06T07:57:23.465Z,315.94
2019-02-06T07:58:23.474Z,316.32
2019-02-06T07:59:23.435Z,315.66
2019-02-06T08:00:23.430Z,315.38
2019-02-06T08:01:23.465Z,314.54
2019-02-06T08:02:23.407Z,315.75
2019-02-06T08:03:23.404Z,317.23
2019-02-06T08:04:23.407Z,316.95
2019-02-06T08:05:23.406Z,316.59
2019-02-06T08:06:23.355Z,317.56
2019-02-06T08:07:23.355Z,317.02
2019-02-06T08:08:23.346Z,316.52
2019-02-06T08:09:23.368Z,316.77
2019-02-06T08:10:23.320Z,316.38
2019-02-06T08:11:23.311Z,316.12
2019-02-06T08:12:23.289Z,316.69
2019-02-06T08:13:23.286Z,317.17
2019-02-06T08:14:23.275Z,316.01
2019-02-06T08:15:23.292Z,315.73
2019-02-06T08:16:23.257Z,314.67
2019-02-06T08:17:23.335Z,313.51
2019-02-06T08:18:23.231Z,313.90
2019-02-06T08:19:23.230Z,313.35
2019-02-06T08:20:23.241Z,313.66
2019-02-06T08:21:23.214Z,313.29
2019-02-06T08:22:23.194Z,313.10
2019-02-06T08:23:23.181Z,312.52
2019-02-06T08:24:23.168Z,312.25
2019-02-06T08:25:23.188Z,313.05
2019-02-06T08:26:23.137Z,312.41
2019-02-06T08:27:26.218Z,312.63
2019-02-06T08:28:23.135Z,312.78
2019-02-06T08:29:23.115Z,313.18
2019-02-06T08:30:23.103Z,313.89
2019-02-06T08:31:23.109Z,313.83
2019-02-06T08:32:23.163Z,313.17
2019-02-06T08:33:23.074Z,313.65
2019-02-06T08:34:23.059Z,313.16
2019-02-06T08:35:23.064Z,313.32
2019-02-06T08:36:23.067Z,313.58
2019-02-06T08:37:23.040Z,313.67
2019-02-06T08:38:23.003Z,313.40
2019-02-06T08:39:22.998Z,314.73
2019-02-06T08:40:23.024Z,314.13
2019-02-06T08:41:23.018Z,314.00
2019-02-06T08:42:22.998Z,314.28
2019-02-06T08:43:22.965Z,314.46
2019-02-06T08:44:22.953Z,314.78
2019-02-06T08:45:22.937Z,313.85
2019-02-06T08:46:22.958Z,314.08
2019-02-06T08:47:22.943Z,313.65
2019-02-06T08:48:22.897Z,314.60
2019-02-06T08:49:22.991Z,314.15
2019-02-06T08:50:22.892Z,313.97
2019-02-06T08:51:22.856Z,314.42
2019-02-06T08:52:22.906Z,314.65
2019-02-06T08:53:22.926Z,312.50
2019-02-06T08:54:22.840Z,312.73
2019-02-06T08:55:22.839Z,313.72
2019-02-06T08:56:22.815Z,314.10
2019-02-06T08:57:22.854Z,313.72
2019-02-06T08:58:22.801Z,312.21
2019-02-06T08:59:22.784Z,313.14
2019-02-06T09:00:22.772Z,312.75
2019-02-06T09:01:22.760Z,311.47
2019-02-06T09:02:22.744Z,312.13
2019-02-06T09:03:22.745Z,311.37
2019-02-06T09:04:22.751Z,312.45
2019-02-06T09:05:22.726Z,312.76
2019-02-06T09:06:22.763Z,312.52
2019-02-06T09:07:22.705Z,312.67
2019-02-06T09:08:22.722Z,314.42
2019-02-06T09:09:22.696Z,314.30
2019-02-06T09:10:22.680Z,315.32
2019-02-06T09:11:22.645Z,314.90
2019-02-06T09:12:22.651Z,314.59
2019-02-06T09:13:22.675Z,313.95
2019-02-06T09:14:22.624Z,314.88
2019-02-06T09:15:22.610Z,312.58
2019-02-06T09:16:22.594Z,313.03
2019-02-06T09:17:22.572Z,313.29
2019-02-06T09:18:22.573Z,312.47
2019-02-06T09:19:22.591Z,312.02
2019-02-06T09:20:22.562Z,312.19
2019-02-06T09:21:22.540Z,311.00
2019-02-06T09:22:22.549Z,312.62
2019-02-06T09:23:22.542Z,309.53
2019-02-06T09:24:22.550Z,311.90
2019-02-06T09:25:22.501Z,310.78
2019-02-06T09:26:22.497Z,311.61
2019-02-06T09:27:22.484Z,312.25
2019-02-06T09:28:22.474Z,313.69
2019-02-06T09:29:22.453Z,314.66
2019-02-06T09:30:22.462Z,312.57
2019-02-06T09:31:22.460Z,312.40
2019-02-06T09:32:22.415Z,312.47
2019-02-06T09:33:22.411Z,314.37
2019-02-06T09:34:22.389Z,311.35
2019-02-06T09:35:22.401Z,312.20
2019-02-06T09:36:22.404Z,309.52
2019-02-06T09:37:22.374Z,311.77
2019-02-06T09:38:22.357Z,310.91
2019-02-06T09:39:22.349Z,312.50
2019-02-06T09:40:22.346Z,309.71
2019-02-06T09:41:22.327Z,310.74
2019-02-06T09:42:22.307Z,311.18
2019-02-06T09:43:22.294Z,310.14
2019-02-06T09:44:22.292Z,310.88
2019-02-06T09:45:22.315Z,309.58
2019-02-06T09:46:22.296Z,309.94
2019-02-06T09:47:22.269Z,308.99
2019-02-06T09:48:22.246Z,309.59
2019-02-06T09:49:22.249Z,309.51
2019-02-06T09:50:22.278Z,310.95
2019-02-06T09:51:22.237Z,309.40
2019-02-06T09:52:25.242Z,308.63
2019-02-06T09:53:23.188Z,306.96
2019-02-06T09:54:22.181Z,306.53
2019-02-06T09:55:22.189Z,308.05
2019-02-06T09:56:22.203Z,305.89
2019-02-06T09:57:22.156Z,307.89
2019-02-06T09:58:22.142Z,306.69
2019-02-06T09:59:22.132Z,307.06
2019-02-06T10:00:22.123Z,308.64
2019-02-06T10:01:22.131Z,306.46
2019-02-06T10:02:22.091Z,307.23
2019-02-06T10:03:22.071Z,307.68
2019-02-06T10:04:22.076Z,306.08
2019-02-06T10:05:22.175Z,306.95
2019-02-06T10:06:22.128Z,305.35
2019-02-06T10:07:22.217Z,305.28
2019-02-06T10:08:22.030Z,306.90
2019-02-06T10:09:23.161Z,305.16
2019-02-06T10:10:22.014Z,306.25
2019-02-06T10:11:22.021Z,305.95
2019-02-06T10:12:21.978Z,306.34
2019-02-06T10:13:22.020Z,305.84
2019-02-06T10:14:21.955Z,305.29
2019-02-06T10:15:21.940Z,306.33
2019-02-06T10:16:22.157Z,307.30
2019-02-06T10:17:21.925Z,307.89
2019-02-06T10:18:21.918Z,306.47
2019-02-06T10:19:21.905Z,307.57
2019-02-06T10:20:21.889Z,309.21
2019-02-06T10:21:21.902Z,308.57
2019-02-06T10:22:21.881Z,309.40
2019-02-06T10:23:21.870Z,309.23
2019-02-06T10:24:21.842Z,309.56
2019-02-06T10:25:21.840Z,309.07
2019-02-06T10:26:21.843Z,309.61
2019-02-06T10:27:23.970Z,309.61
2019-02-06T10:28:24.142Z,310.81
2019-02-06T10:29:21.796Z,311.02
2019-02-06T10:30:21.788Z,311.49
2019-02-06T10:31:21.798Z,311.42
2019-02-06T10:32:21.750Z,311.93
2019-02-06T10:33:21.773Z,312.61
2019-02-06T10:34:21.734Z,312.52
2019-02-06T10:35:21.718Z,312.79
2019-02-06T10:36:21.737Z,313.19
2019-02-06T10:37:21.739Z,312.30
2019-02-06T10:38:21.691Z,314.20
2019-02-06T10:39:21.674Z,315.42
2019-02-06T10:40:21.674Z,316.21
2019-02-06T10:41:21.664Z,317.12
2019-02-06T10:42:21.680Z,316.12
2019-02-06T10:43:31.591Z,316.71
2019-02-06T10:44:22.622Z,316.62
2019-02-06T10:45:21.613Z,316.23
2019-02-06T10:46:21.618Z,317.53
2019-02-06T10:47:21.590Z,315.18
2019-02-06T10:48:21.590Z,313.76
2019-02-06T10:49:21.576Z,314.39
2019-02-06T10:50:21.583Z,315.80
2019-02-06T10:51:21.581Z,313.98
2019-02-06T10:52:21.714Z,312.62
2019-02-06T10:53:21.525Z,313.08
2019-02-06T10:54:21.532Z,314.23
2019-02-06T10:55:21.514Z,310.79
2019-02-06T10:56:21.514Z,313.66
2019-02-06T10:57:21.482Z,312.27
2019-02-06T10:58:21.467Z,310.29
2019-02-06T10:59:21.458Z,309.77
2019-02-06T11:00:21.456Z,309.65
2019-02-06T11:01:21.466Z,311.46
2019-02-06T11:02:21.438Z,310.13
2019-02-06T11:03:21.428Z,308.88
2019-02-06T11:04:21.400Z,310.10
2019-02-06T11:05:21.393Z,309.60
2019-02-06T11:06:21.407Z,310.02
2019-02-06T11:07:21.371Z,309.88
2019-02-06T11:08:21.374Z,309.28
2019-02-06T11:09:21.358Z,311.16
2019-02-06T11:10:21.332Z,311.88
2019-02-06T11:11:21.344Z,310.78
2019-02-06T11:12:21.321Z,311.01
2019-02-06T11:13:21.318Z,314.15
2019-02-06T11:14:21.295Z,309.51
2019-02-06T11:15:21.283Z,309.95
2019-02-06T11:16:21.327Z,310.05
2019-02-06T11:17:21.261Z,309.25
2019-02-06T11:18:21.246Z,308.45
2019-02-06T11:19:21.243Z,308.05
2019-02-06T11:20:21.233Z,306.99
2019-02-06T11:21:21.236Z,306.53
2019-02-06T11:22:21.244Z,305.02
2019-02-06T11:23:21.205Z,305.87
2019-02-06T11:24:21.181Z,307.23
2019-02-06T11:25:21.173Z,305.24
2019-02-06T11:26:21.179Z,304.48
2019-02-06T11:27:21.175Z,307.66
2019-02-06T11:28:21.139Z,306.49
2019-02-06T11:29:21.123Z,307.63
2019-02-06T11:30:21.120Z,308.64
2019-02-06T11:31:21.107Z,307.78
2019-02-06T11:32:21.140Z,308.82
2019-02-06T11:33:21.091Z,308.53
2019-02-06T11:34:21.084Z,308.69
2019-02-06T11:35:21.070Z,308.01
2019-02-06T11:36:24.140Z,309.97
2019-02-06T11:37:21.067Z,309.55
2019-02-06T11:38:21.029Z,308.58
2019-02-06T11:39:21.014Z,309.02
2019-02-06T11:40:21.013Z,308.02
2019-02-06T11:41:21.000Z,309.66
2019-02-06T11:42:21.006Z,309.37
2019-02-06T11:43:20.967Z,310.33
2019-02-06T11:44:20.975Z,310.55
2019-02-06T11:45:20.957Z,309.02
2019-02-06T11:46:20.950Z,310.19
2019-02-06T11:47:20.961Z,309.51
2019-02-06T11:48:20.938Z,310.61
2019-02-06T11:49:20.904Z,309.85
2019-02-06T11:50:20.889Z,311.06
2019-02-06T11:51:20.883Z,312.06
2019-02-06T11:52:20.877Z,312.02
2019-02-06T11:53:20.906Z,309.47
2019-02-06T11:54:20.850Z,310.18
2019-02-06T11:55:20.856Z,309.48
2019-02-06T11:56:20.820Z,309.60
2019-02-06T11:57:20.815Z,309.55
2019-02-06T11:58:20.806Z,310.58
2019-02-06T11:59:20.818Z,309.63
2019-02-06T12:00:20.787Z,310.53
2019-02-06T12:01:20.766Z,310.30
2019-02-06T12:02:20.755Z,310.09
2019-02-06T12:03:22.257Z,309.38
2019-02-06T12:04:20.771Z,310.50
2019-02-06T12:05:20.735Z,310.74
2019-02-06T12:06:20.726Z,310.96
2019-02-06T12:07:20.713Z,311.05
2019-02-06T12:08:20.690Z,310.92
2019-02-06T12:09:20.702Z,312.08
2019-02-06T12:10:20.669Z,311.92
2019-02-06T12:11:20.653Z,311.68
2019-02-06T12:12:20.654Z,311.72
2019-02-06T12:13:20.659Z,311.87
2019-02-06T12:14:20.631Z,311.54
2019-02-06T12:15:20.628Z,312.27
2019-02-06T12:16:20.786Z,311.32
2019-02-06T12:17:20.603Z,311.93
2019-02-06T12:18:20.592Z,311.73
2019-02-06T12:19:20.582Z,310.75
2019-02-06T12:20:20.603Z,312.47
2019-02-06T12:21:20.551Z,311.49
2019-02-06T12:22:20.546Z,311.74
2019-02-06T12:23:31.586Z,311.17
2019-02-06T12:24:21.534Z,312.13
2019-02-06T12:25:20.521Z,312.13
2019-02-06T12:26:21.054Z,312.41
2019-02-06T12:27:20.495Z,311.74
2019-02-06T12:28:20.479Z,311.21